Abilene, Texas
Current Conditions -  °F | °C
As of 2:52 AM on Wednesday 28 Jan 2015 (Local Time) from KABI Reporting Station
Clear Clear  
Wind Chill:   Ceiling: Unl
Heat Index:   Visibility: 10mi
Dew Point:   Wind: 9mph
Humidity: 66%   Direction: 190°S
Pressure: 30.1"   Gusts: NA
Location:  32.45°N, 99.74°W
Report Text: KABI 280852Z 19008KT 10SM CLR 09/03 A3010 RMK AO2 SLP179 T00890028 56010
Loading
Personal Weather Stations






























Interactive Weather Map New forecast layout! Learn more

10-Day Weather Forecast

Advertisements
Track Severe Weather on mobile